Eborense — CSMP — position and weather

sailwx.info

Track history (hours):
 
Tides and Currents Weather Stations Pressure Air Temp Water Temp Dewpoint Dewpoint Depression Visibility Wind Speed Wind Dir Waves Ship Positions

Eborense

Last reported at 2016-Feb-02 22:33 UTC. Time now 2016-Feb-10 04:33 UTC.
Position N 38°41' W 009°12'.

Length 49 m; draft 1.2 m.

Type: Passenger vessel. MMSI: 263701750.

Date/timePositionNaut miles runAvg speedWind from/ knotsBaromVisibWave heightAir tempDewpointWater temp
2016-Feb-02 22:33N 38°41' W 009°12'1 1.0
2016-Feb-02 21:32N 38°41' W 009°14'0 0.1
2016-Feb-02 20:33N 38°41' W 009°14'1 1.4
2016-Feb-02 19:33N 38°41' W 009°12'0 0.3
2016-Feb-02 18:31N 38°42' W 009°12'0 0.3
2016-Feb-02 17:33N 38°41' W 009°12'0 0.1
2016-Feb-02 16:33N 38°41' W 009°12'0 0.1
2016-Feb-02 15:33N 38°42' W 009°12'2 2.4
2016-Feb-02 14:33N 38°41' W 009°09'  
2016-Jan-28 22:33N 38°41' W 009°12'1 1.1
2016-Jan-28 21:33N 38°41' W 009°14'0 0.2
2016-Jan-28 20:32N 38°40' W 009°14'2 1.9
2016-Jan-28 19:33N 38°42' W 009°12'0 0.0
2016-Jan-28 18:33N 38°42' W 009°12'0 0.1
2016-Jan-28 17:33N 38°42' W 009°12'3 2.5
2016-Jan-28 16:34N 38°41' W 009°09'0 0.0
2016-Jan-28 15:34N 38°41' W 009°09'0 0.0
2016-Jan-28 14:34N 38°41' W 009°09'0 0.0
2016-Jan-28 13:33N 38°41' W 009°09'0 0.0
2016-Jan-28 12:33N 38°41' W 009°09'0 0.0
2016-Jan-28 11:34N 38°41' W 009°09'0 0.5
2016-Jan-28 10:34N 38°42' W 009°08'4 4.2
2016-Jan-28 09:33N 38°41' W 009°14'0 0.1
2016-Jan-28 08:34N 38°41' W 009°14'0 0.0
2016-Jan-28 07:32N 38°40' W 009°14'  
Track history (hours):
 
Tides and Currents Weather Stations Pressure Air Temp Water Temp Dewpoint Dewpoint Depression Visibility Wind Speed Wind Dir Waves Ship Positions

Eborense

Last reported at 2016-Feb-02 22:33 UTC. Time now 2016-Feb-10 04:33 UTC.
Position N 38°41' W 009°12'.

Length 49 m; draft 1.2 m.

Type: Passenger vessel. MMSI: 263701750.

Date/timePositionNaut miles runAvg speedWind from/ knotsBaromVisibWave heightAir tempDewpointWater temp
2016-Feb-02 22:33N 38°41' W 009°12'1 1.0
2016-Feb-02 21:32N 38°41' W 009°14'0 0.1
2016-Feb-02 20:33N 38°41' W 009°14'1 1.4
2016-Feb-02 19:33N 38°41' W 009°12'0 0.3
2016-Feb-02 18:31N 38°42' W 009°12'0 0.3
2016-Feb-02 17:33N 38°41' W 009°12'0 0.1
2016-Feb-02 16:33N 38°41' W 009°12'0 0.1
2016-Feb-02 15:33N 38°42' W 009°12'2 2.4
2016-Feb-02 14:33N 38°41' W 009°09'  
2016-Jan-28 22:33N 38°41' W 009°12'1 1.1
2016-Jan-28 21:33N 38°41' W 009°14'0 0.2
2016-Jan-28 20:32N 38°40' W 009°14'2 1.9
2016-Jan-28 19:33N 38°42' W 009°12'0 0.0
2016-Jan-28 18:33N 38°42' W 009°12'0 0.1
2016-Jan-28 17:33N 38°42' W 009°12'3 2.5
2016-Jan-28 16:34N 38°41' W 009°09'0 0.0
2016-Jan-28 15:34N 38°41' W 009°09'0 0.0
2016-Jan-28 14:34N 38°41' W 009°09'0 0.0
2016-Jan-28 13:33N 38°41' W 009°09'0 0.0
2016-Jan-28 12:33N 38°41' W 009°09'0 0.0
2016-Jan-28 11:34N 38°41' W 009°09'0 0.5
2016-Jan-28 10:34N 38°42' W 009°08'4 4.2
2016-Jan-28 09:33N 38°41' W 009°14'0 0.1
2016-Jan-28 08:34N 38°41' W 009°14'0 0.0
2016-Jan-28 07:32N 38°40' W 009°14'  

Dump ship's entire track history